Station: Parndana

  Atmospheric Gas Attenuation - ITU Rec 676-11   --------------- db/100km ---------------
Date Time Temp RH % AH g/m3 Dew Point Wind Direction Speed kph Gust kph Barometer mB Rainfall Since 9am 24GHz 47GHz 76GHz 122GHz 134GHz 241GHz
03 07:30 14.4 79 9.77 10.8 9 13 1013.1 0 22.1 27.6 44.3 116.3 113.3 390.6
03 07:20 14.1 81 9.83 11 7 9 1013.1 0 22.2 27.8 44.7 117.5 114.6 395.0
03 07:10 13.9 86 10.31 11.6 7 9 1013.1 0 23.2 28.7 46.8 123.2 121.5 419.4
03 07:00 12.8 92 10.31 11.5 6 7 1013.1 0 23.3 29.1 47.5 124.9 123.3 425.4
03 06:50 11.9 94 9.96 10.9 6 6 1013.1 0 22.6 28.8 46.5 122.3 119.7 412.9
03 06:40 11.3 94 9.59 10.3 4 4 1013.1 0 21.8 28.3 45.3 119.0 115.4 397.7
03 06:30 10.6 93 9.08 9.5 6 7 1013.1 0 20.8 27.7 43.5 114.2 109.2 376.0
03 06:20 10.8 93 9.19 9.7 6 6 1013.1 0 21.0 27.8 43.8 115.2 110.5 380.4
03 06:10 11.1 94 9.47 10.1 6 6 1013.1 0 21.6 28.2 44.9 117.9 114.0 392.7
03 06:00 11.2 95 9.63 10.4 6 9 1013.1 0 21.9 28.4 45.5 119.6 116.1 400.2
03 05:50 10.9 95 9.45 10.1 6 6 1013.1 0 21.6 28.2 44.9 118.0 114.0 392.8
03 05:40 10.5 93 9.02 9.5 4 6 1013.1 0 20.7 27.6 43.3 113.7 108.5 373.5
03 05:30 10.7 94 9.23 9.8 6 6 1013.1 0 21.1 27.9 44.1 115.8 111.2 382.9
03 05:20 10.8 93 9.19 9.7 6 6 1013.1 0 21.0 27.8 43.8 115.2 110.5 380.4
03 05:00 11.4 93 9.55 10.3 7 9 1013.1 0 21.8 28.2 45.0 118.4 114.7 395.2
03 04:50 11.4 94 9.65 10.4 7 9 1013.1 0 22.0 28.4 45.5 119.5 116.1 400.1
03 04:40 11.2 95 9.63 10.4 6 6 1013.1 0 21.9 28.4 45.5 119.6 116.1 400.2
03 04:30 10.9 95 9.45 10.1 6 7 1013.1 0 21.6 28.2 44.9 118.0 114.0 392.8
03 04:20 10.5 95 9.22 9.7 6 6 1013.1 0 21.1 27.9 44.1 116.0 111.4 383.4
03 04:10 10.3 95 9.1 9.5 6 7 1013.1 0 20.8 27.8 43.7 114.9 110.0 378.4
03 04:00 10.1 95 8.99 9.3 7 7 1013.1 0 20.6 27.7 43.4 113.9 108.7 374.0
03 03:50 9.8 93 8.63 8.8 7 9 1013.1 0 19.9 27.1 42.0 110.3 104.0 357.7
03 03:40 9.9 93 8.69 8.8 9 9 1013.1 0 20.0 27.2 42.2 110.8 104.8 360.2
03 03:30 10.3 93 8.91 9.2 9 9 1013.1 0 20.4 27.5 42.9 112.7 107.3 369.1
03 03:20 10.5 92 8.92 9.2 9 9 1013.1 0 20.4 27.4 42.8 112.5 107.1 368.6
03 03:10 10.7 91 8.94 9.3 7 7 1013.1 0 20.5 27.4 42.8 112.5 107.1 368.7
03 03:00 11.4 92 9.44 10.1 9 9 1013.1 0 21.5 28.0 44.6 117.1 113.1 389.7
03 02:50 12.1 94 10.08 11.1 7 9 1013.1 0 22.9 28.9 46.9 123.4 121.1 417.8
03 02:40 11.6 94 9.77 10.6 7 9 1013.1 0 22.2 28.5 45.9 120.6 117.5 405.0
03 02:30 11.6 94 9.77 10.7 6 7 1013.1 0 22.2 28.5 45.9 120.6 117.5 405.0
03 02:20 11.5 93 9.61 10.4 6 7 1013.1 0 21.9 28.3 45.2 118.9 115.4 397.6
03 02:10 11.6 92 9.56 10.3 6 6 1013.1 0 21.8 28.2 45.0 118.2 114.5 394.6
03 02:00 11.9 92 9.74 10.6 6 7 1013.1 0 22.1 28.4 45.6 119.8 116.6 402.0
03 01:50 12 92 9.81 10.7 6 6 1013.1 0 22.3 28.5 45.8 120.5 117.5 404.9
03 01:40 12.2 93 10.04 11.1 7 9 1013.1 0 22.8 28.8 46.7 122.8 120.4 415.2
03 01:30 12.1 93 9.97 11 4 6 1013.1 0 22.6 28.7 46.4 122.1 119.6 412.3
03 01:20 11.9 92 9.74 10.6 4 6 1013.1 0 22.1 28.4 45.6 119.8 116.6 402.0
03 01:10 11.8 92 9.68 10.5 2 4 1013.1 0 22.0 28.3 45.4 119.3 115.9 399.5
03 01:00 11.6 91 9.46 10.2 6 9 1013.1 0 21.5 28.0 44.5 117.1 113.1 389.7
03 00:50 11.7 90 9.41 10.1 6 7 1013.1 0 21.4 27.9 44.3 116.3 112.3 386.8
03 00:40 12.2 90 9.71 10.6 11 13 1013.1 0 22.1 28.2 45.3 119.0 115.7 398.9
03 00:30 12.3 89 9.67 10.5 15 19 1013.1 0 22.0 28.1 45.0 118.4 115.0 396.5
03 00:20 12.8 88 9.86 10.8 15 17 1013.1 0 22.3 28.3 45.5 119.8 116.9 403.2
03 00:10 13.1 85 9.7 10.6 13 15 1013.1 0 22.0 27.9 44.7 117.5 114.2 393.8
03 00:00 13.4 86 10 11.1 9 17 1013.1 0 22.6 28.3 45.8 120.4 118.0 406.9
02 23:50 13.2 86 9.88 10.9 9 11 1013.1 0 22.4 28.2 45.4 119.4 116.6 402.1
02 23:40 13 85 9.64 10.5 9 9 1013.1 0 21.9 27.9 44.5 117.0 113.6 391.4
02 23:30 13.1 84 9.59 10.5 7 9 1013.1 0 21.7 27.7 44.2 116.3 112.7 388.5
02 23:20 13 85 9.64 10.5 6 7 1013.1 0 21.9 27.9 44.5 117.0 113.6 391.4
02 23:10 12.9 85 9.58 10.4 7 9 1013.1 0 21.7 27.8 44.3 116.5 112.9 389.0
02 23:00 12.6 87 9.63 10.5 11 13 1013.1 0 21.9 28.0 44.7 117.5 114.0 393.0
02 22:50 12 87 9.27 10 9 11 1013.1 0 21.1 27.5 43.5 114.3 109.9 378.5
02 22:40 11.3 90 9.18 9.7 9 11 1013.1 0 21.0 27.6 43.5 114.3 109.6 377.5
02 22:30 10.8 90 8.9 9.2 11 13 1013.1 0 20.4 27.3 42.6 111.9 106.4 366.2
02 22:20 10.6 89 8.69 8.8 11 11 1013.1 0 19.9 27.0 41.8 109.8 103.8 357.0
02 22:10 10.6 89 8.69 8.8 11 13 1013.1 0 19.9 27.0 41.8 109.8 103.8 357.0
02 22:00 10.6 88 8.59 8.7 11 13 1013.1 0 19.7 26.8 41.4 108.7 102.4 352.1
02 21:50 10.7 86 8.45 8.4 11 11 1013.1 0 19.4 26.6 40.8 107.0 100.4 344.9
02 21:40 11.4 84 8.62 8.9 9 11 1013.1 0 19.7 26.6 41.1 107.9 101.8 350.0
02 21:30 11.5 83 8.57 8.7 9 9 1013.1 0 19.6 26.5 40.8 107.2 101.0 347.1
02 21:20 11.9 82 8.69 8.9 9 11 1013.1 0 19.9 26.6 41.1 108.0 102.1 351.0
02 21:10 12.4 80 8.74 9 9 9 1013.1 0 20.0 26.5 41.1 107.8 102.1 351.2
02 21:00 12.8 78 8.74 9.1 13 19 1013.1 0 19.9 26.4 40.9 107.3 101.5 349.4
02 20:50 13.1 75 8.56 8.9 13 17 1013.1 0 19.5 26.0 40.0 104.9 98.7 339.6
02 20:40 13.8 75 8.94 9.4 19 24 1013.1 0 20.3 26.4 41.2 108.1 102.9 354.3
02 20:30 13.9 75 8.99 9.5 17 20 1013.1 0 20.4 26.5 41.3 108.5 103.4 356.2
02 20:20 13.5 76 8.89 9.3 15 19 1013.1 0 20.2 26.4 41.1 108.0 102.6 353.3
02 20:10 13.6 74 8.71 9 11 13 1013.1 0 19.8 26.1 40.3 105.9 100.1 344.4
02 20:00 14 72 8.68 9 20 28 1013.1 0 19.8 26.0 40.0 105.0 99.2 341.3
02 19:50 14.3 70 8.6 8.9 20 24 1013.1 0 19.6 25.7 39.5 103.8 97.8 336.3
02 19:40 14.4 67 8.28 8.5 19 20 1013.1 0 18.9 25.2 38.2 100.3 93.5 321.3
02 19:30 14.9 67 8.54 8.8 19 26 1013.1 0 19.4 25.5 39.0 102.4 96.2 331.0
02 19:20 15.2 66 8.57 8.9 24 26 1013.1 0 19.5 25.4 39.0 102.3 96.2 331.1
02 19:10 15.3 64 8.36 8.5 24 28 1013.1 0 19.0 25.1 38.1 100.0 93.4 321.2
02 19:00 15.6 61 8.11 8.1 24 32 1013.1 0 18.5 24.6 37.0 97.0 89.9 308.9
02 18:50 15.3 59 7.7 7.3 30 35 1013.1 0 17.6 24.1 35.6 93.2 85.1 292.0
02 18:40 16.1 59 8.09 8.1 20 32 1013.1 0 18.4 24.4 36.7 96.2 89.1 306.1
02 18:30 16.1 56 7.68 7.3 22 32 1013.1 0 17.5 23.8 35.1 92.1 83.9 288.2
02 18:20 16.3 56 7.77 7.7 22 28 1013.1 0 17.7 23.9 35.4 92.7 84.8 291.4
02 18:10 16.4 56 7.82 7.8 24 33 1013.1 0 17.8 23.9 35.5 93.1 85.4 293.2
02 18:00 16.7 56 7.96 7.9 26 39 1013.1 0 18.1 24.1 35.9 94.2 86.8 298.1
02 17:50 17 55 7.96 7.9 24 28 1013.1 0 18.1 24.0 35.8 93.8 86.4 297.0
02 17:40 17.4 54 8 8 20 26 1013.1 0 18.1 24.0 35.8 93.7 86.5 297.3
02 17:30 17.6 52 7.8 7.6 24 32 1013.1 0 17.7 23.6 34.9 91.5 83.8 287.9
02 17:20 16.8 52 7.43 7.1 22 28 1013.1 0 17.0 23.3 33.9 88.8 80.2 275.0
02 17:10 17.4 50 7.41 7.1 32 35 1013.1 0 16.9 23.1 33.6 87.9 79.3 272.1
02 17:00 17.7 51 7.69 7.4 26 35 1013.1 0 17.5 23.4 34.5 90.3 82.4 282.9
02 16:50 17.4 50 7.41 7.1 26 30 1013.1 0 16.9 23.1 33.6 87.9 79.3 272.1
02 16:40 17.4 50 7.41 7.1 28 32 1013.1 0 16.9 23.1 33.6 87.9 79.3 272.1
02 16:30 17.6 52 7.8 7.6 30 43 1013.1 0 17.7 23.6 34.9 91.5 83.8 287.9
02 16:20 17.5 52 7.75 7.5 30 35 1013.1 0 17.6 23.6 34.8 91.1 83.3 286.2
02 16:10 17.9 52 7.94 7.9 28 32 1013.1 0 18.0 23.7 35.3 92.6 85.2 292.8
02 16:00 18 50 7.68 7.4 24 35 1013.1 0 17.4 23.3 34.3 89.9 82.0 281.4
02 15:50 18.1 50 7.72 7.5 32 39 1013.1 0 17.5 23.4 34.4 90.2 82.3 282.8
02 15:40 18.1 51 7.88 7.8 30 35 1013.1 0 17.9 23.6 35.0 91.7 84.3 289.6
02 15:30 19.2 52 8.57 9.1 26 35 1013.1 0 19.3 24.3 37.1 97.3 91.5 314.9
02 15:20 18.7 49 7.84 8 22 26 1013.1 0 17.8 23.4 34.6 90.7 83.2 285.7
02 15:10 18.7 50 8 8.3 26 30 1013.1 0 18.1 23.6 35.2 92.2 85.1 292.5
02 15:00 18.6 52 8.28 8.6 28 39 1013.1 0 18.7 24.1 36.3 95.1 88.6 304.8
02 14:50 18.2 54 8.39 8.7 26 33 1013.1 0 18.9 24.3 36.9 96.7 90.4 311.1

Last Refresh: 03-Dec-2021 07:41:23

Bureau of Meteorology